Time;durP1;ratioP1;P1;durP2;ratioP2;P2;SDS_P1;SDS_P2;PMS_P1;PMS_P2;Temp;Humidity;BMP_temperature;BMP_pressure;BME280_temperature;BME280_humidity;BME280_pressure;Samples;Min_cycle;Max_cycle;Signal;HPM_P1;HPM_P2
2023/07/13 00:00:20;;;;;;;4.32;1.60;;;;;;;;;;5072645;28;20123;-69
2023/07/13 00:02:46;;;;;;;4.13;1.58;;;;;;;;;;5053431;28;20049;-70
2023/07/13 00:05:12;;;;;;;2.83;1.80;;;;;;;;;;5071065;28;20044;-69
2023/07/13 00:07:38;;;;;;;1.70;1.60;;;;;;;;;;5053453;28;20454;-69
2023/07/13 00:10:05;;;;;;;2.38;1.52;;;;;;;;;;5070654;28;20162;-69
2023/07/13 00:12:34;;;;;;;3.90;1.88;;;;;;;;;;5070782;28;20396;-69
2023/07/13 00:15:06;;;;;;;2.67;1.80;;;;;;;;;;5073426;28;20477;-69
2023/07/13 00:17:32;;;;;;;5.75;1.83;;;;;;;;;;5072995;28;20119;-69
2023/07/13 00:19:59;;;;;;;3.67;1.60;;;;;;;;;;5052776;28;20044;-69
2023/07/13 00:22:25;;;;;;;5.47;2.05;;;;;;;;;;5070783;28;20504;-69
2023/07/13 00:24:58;;;;;;;2.30;2.10;;;;;;;;;;5052135;28;20055;-69
2023/07/13 00:27:26;;;;;;;4.65;1.95;;;;;;;;;;5047430;28;20049;-69
2023/07/13 00:29:52;;;;;;;5.25;2.15;;;;;;;;;;5055480;28;20057;-69
2023/07/13 00:32:19;;;;;;;4.47;1.60;;;;;;;;;;5074503;28;20055;-69
2023/07/13 00:34:45;;;;;;;7.70;2.22;;;;;;;;;;5071969;28;20089;-69
2023/07/13 00:37:11;;;;;;;4.20;1.88;;;;;;;;;;5065924;28;20045;-69
2023/07/13 00:39:37;;;;;;;3.88;2.17;;;;;;;;;;5055143;28;20127;-69
2023/07/13 00:42:04;;;;;;;5.65;2.40;;;;;;;;;;5053951;28;20381;-69
2023/07/13 00:44:30;;;;;;;5.63;2.42;;;;;;;;;;5041553;28;20076;-69
2023/07/13 00:46:58;;;;;;;5.40;2.22;;;;;;;;;;5073198;28;20539;-69
2023/07/13 00:49:25;;;;;;;6.20;2.10;;;;;;;;;;5055381;28;20115;-69
2023/07/13 00:51:53;;;;;;;4.13;1.95;;;;;;;;;;5071751;28;20072;-69
2023/07/13 00:54:28;;;;;;;7.40;2.30;;;;;;;;;;5070503;28;20047;-69
2023/07/13 00:56:56;;;;;;;9.10;2.50;;;;;;;;;;5060255;28;20047;-69
2023/07/13 00:59:23;;;;;;;7.35;2.40;;;;;;;;;;5071819;28;20094;-69
2023/07/13 01:01:49;;;;;;;9.18;2.75;;;;;;;;;;5072358;28;20060;-69
2023/07/13 01:04:15;;;;;;;7.63;2.60;;;;;;;;;;5072136;28;20033;-69
2023/07/13 01:06:43;;;;;;;7.97;2.80;;;;;;;;;;5071762;28;20052;-69
2023/07/13 01:09:10;;;;;;;8.00;2.92;;;;;;;;;;5069192;28;20053;-69
2023/07/13 01:11:36;;;;;;;8.30;2.83;;;;;;;;;;5070885;28;20087;-69
2023/07/13 01:14:03;;;;;;;8.70;2.65;;;;;;;;;;5051628;28;20139;-69
2023/07/13 01:16:30;;;;;;;7.28;2.72;;;;;;;;;;5052598;28;20079;-69
2023/07/13 01:19:01;;;;;;;7.57;2.90;;;;;;;;;;5072018;28;20076;-69
2023/07/13 01:21:28;;;;;;;7.35;2.83;;;;;;;;;;5053225;28;20132;-69
2023/07/13 01:23:54;;;;;;;13.38;3.65;;;;;;;;;;5069807;28;20079;-69
2023/07/13 01:26:20;;;;;;;7.85;2.70;;;;;;;;;;5069795;28;20132;-69
2023/07/13 01:28:46;;;;;;;10.70;3.22;;;;;;;;;;5065034;28;20051;-69
2023/07/13 01:31:12;;;;;;;7.35;2.53;;;;;;;;;;5053102;28;20044;-69
2023/07/13 01:33:40;;;;;;;12.35;3.00;;;;;;;;;;5055175;28;20044;-69
2023/07/13 01:36:07;;;;;;;13.73;3.53;;;;;;;;;;5043963;28;20512;-69
2023/07/13 01:38:33;;;;;;;8.63;3.20;;;;;;;;;;5052385;28;20071;-69
2023/07/13 01:40:59;;;;;;;7.45;3.50;;;;;;;;;;5070098;28;20045;-69
2023/07/13 01:43:25;;;;;;;6.75;3.08;;;;;;;;;;5069720;28;20106;-69
2023/07/13 01:45:51;;;;;;;6.95;2.78;;;;;;;;;;5078159;28;20399;-69
2023/07/13 01:48:18;;;;;;;8.32;3.08;;;;;;;;;;5072138;28;20245;-69
2023/07/13 01:50:44;;;;;;;7.82;3.30;;;;;;;;;;5053705;28;20052;-69
2023/07/13 01:53:10;;;;;;;7.15;3.05;;;;;;;;;;5053456;28;20056;-69
2023/07/13 01:55:37;;;;;;;8.18;3.15;;;;;;;;;;5054741;28;20049;-69
2023/07/13 01:58:03;;;;;;;9.15;3.22;;;;;;;;;;5044876;28;20135;-69
2023/07/13 02:00:30;;;;;;;9.95;3.25;;;;;;;;;;5051943;28;20426;-69
2023/07/13 02:02:56;;;;;;;6.55;2.70;;;;;;;;;;5078296;28;20745;-69
2023/07/13 02:05:22;;;;;;;8.73;3.10;;;;;;;;;;5070770;28;20037;-69
2023/07/13 02:07:49;;;;;;;12.25;3.47;;;;;;;;;;5070771;28;20515;-70
2023/07/13 02:10:15;;;;;;;10.80;3.58;;;;;;;;;;5068904;28;20051;-70
2023/07/13 02:12:42;;;;;;;8.68;3.45;;;;;;;;;;5055910;28;20109;-69
2023/07/13 02:15:08;;;;;;;10.00;3.28;;;;;;;;;;5070573;28;20041;-69
2023/07/13 02:17:35;;;;;;;11.65;3.78;;;;;;;;;;5069548;28;20059;-69
2023/07/13 02:20:02;;;;;;;8.20;2.78;;;;;;;;;;5069043;28;20055;-69
2023/07/13 02:22:28;;;;;;;10.52;3.35;;;;;;;;;;5067225;28;20052;-69
2023/07/13 02:24:54;;;;;;;9.20;3.20;;;;;;;;;;5068130;28;20048;-69
2023/07/13 02:27:20;;;;;;;8.43;3.40;;;;;;;;;;5067988;28;20136;-70
2023/07/13 02:29:46;;;;;;;7.95;3.35;;;;;;;;;;5070823;28;20045;-69
2023/07/13 02:32:12;;;;;;;7.38;3.35;;;;;;;;;;5070635;28;20076;-69
2023/07/13 02:34:39;;;;;;;9.43;3.25;;;;;;;;;;5053285;28;20369;-69
2023/07/13 02:37:05;;;;;;;12.32;3.63;;;;;;;;;;5070489;28;20504;-69
2023/07/13 02:39:32;;;;;;;7.75;3.10;;;;;;;;;;5069137;28;20527;-69
2023/07/13 02:41:59;;;;;;;8.55;3.67;;;;;;;;;;5070425;28;20048;-69
2023/07/13 02:44:25;;;;;;;8.93;3.33;;;;;;;;;;5046149;28;20075;-69
2023/07/13 02:46:51;;;;;;;8.60;3.25;;;;;;;;;;5070270;28;20040;-69
2023/07/13 02:49:17;;;;;;;11.20;4.07;;;;;;;;;;5051761;28;20043;-69
2023/07/13 02:51:43;;;;;;;10.13;3.53;;;;;;;;;;5070630;28;20056;-69
2023/07/13 02:54:09;;;;;;;10.55;3.85;;;;;;;;;;5068300;28;20506;-69
2023/07/13 02:56:35;;;;;;;8.23;3.47;;;;;;;;;;5034098;28;20055;-69
2023/07/13 02:59:02;;;;;;;12.40;3.88;;;;;;;;;;5069477;28;20488;-69
2023/07/13 03:01:28;;;;;;;13.32;3.63;;;;;;;;;;5048590;28;20048;-69
2023/07/13 03:03:55;;;;;;;11.50;3.75;;;;;;;;;;5053063;28;20079;-69
2023/07/13 03:06:22;;;;;;;8.93;3.30;;;;;;;;;;5069488;28;20416;-70
2023/07/13 03:08:49;;;;;;;10.88;3.83;;;;;;;;;;5052379;28;20048;-69
2023/07/13 03:11:16;;;;;;;9.38;3.80;;;;;;;;;;5047711;28;20430;-69
2023/07/13 03:13:42;;;;;;;9.32;4.00;;;;;;;;;;5067615;28;20135;-69
2023/07/13 03:16:10;;;;;;;9.70;4.50;;;;;;;;;;5067838;28;20044;-69
2023/07/13 03:18:36;;;;;;;8.90;3.83;;;;;;;;;;5037483;28;20067;-69
2023/07/13 03:21:03;;;;;;;11.00;3.45;;;;;;;;;;5068236;28;20477;-69
2023/07/13 03:23:29;;;;;;;10.00;3.50;;;;;;;;;;5051813;28;20067;-69
2023/07/13 03:26:06;;;;;;;11.32;3.75;;;;;;;;;;5067264;28;20048;-70
2023/07/13 03:28:32;;;;;;;10.50;3.53;;;;;;;;;;5065712;28;20562;-70
2023/07/13 03:31:05;;;;;;;7.68;3.10;;;;;;;;;;5073085;28;20072;-69
2023/07/13 03:33:31;;;;;;;7.53;3.20;;;;;;;;;;5037471;28;20386;-69
2023/07/13 03:35:58;;;;;;;12.32;3.85;;;;;;;;;;5070406;28;20400;-70
2023/07/13 03:38:24;;;;;;;8.07;4.28;;;;;;;;;;5055092;28;20041;-69
2023/07/13 03:40:50;;;;;;;7.45;3.40;;;;;;;;;;5071431;28;20387;-70
2023/07/13 03:43:16;;;;;;;9.77;3.20;;;;;;;;;;5070397;28;20139;-69
2023/07/13 03:45:43;;;;;;;7.53;2.72;;;;;;;;;;5036061;28;20049;-69
2023/07/13 03:48:09;;;;;;;6.18;3.00;;;;;;;;;;5071328;28;20404;-69
2023/07/13 03:50:35;;;;;;;8.48;3.03;;;;;;;;;;5072788;28;20052;-69
2023/07/13 03:53:01;;;;;;;7.18;2.92;;;;;;;;;;5054154;28;20048;-70
2023/07/13 03:55:27;;;;;;;5.85;2.85;;;;;;;;;;5073909;28;20548;-69
2023/07/13 03:57:58;;;;;;;9.55;3.13;;;;;;;;;;5061464;28;20550;-69
2023/07/13 04:00:24;;;;;;;9.15;3.30;;;;;;;;;;5053955;28;20044;-69
2023/07/13 04:02:50;;;;;;;6.50;2.60;;;;;;;;;;5073301;28;20055;-69
2023/07/13 04:05:16;;;;;;;8.18;3.15;;;;;;;;;;5072117;28;20041;-69
2023/07/13 04:07:42;;;;;;;5.00;2.65;;;;;;;;;;5038717;28;20098;-70
2023/07/13 04:10:09;;;;;;;7.07;2.78;;;;;;;;;;5072235;28;20373;-70
2023/07/13 04:12:35;;;;;;;5.88;2.63;;;;;;;;;;5054730;28;20400;-69
2023/07/13 04:15:01;;;;;;;4.70;2.72;;;;;;;;;;5056871;28;20040;-70
2023/07/13 04:17:27;;;;;;;7.60;2.80;;;;;;;;;;5073728;28;20127;-70
2023/07/13 04:19:53;;;;;;;7.03;2.92;;;;;;;;;;5048174;28;20044;-70
2023/07/13 04:22:19;;;;;;;9.25;3.10;;;;;;;;;;5064072;28;20139;-69
2023/07/13 04:24:45;;;;;;;6.72;2.80;;;;;;;;;;5052480;28;20118;-70
2023/07/13 04:27:11;;;;;;;9.60;3.25;;;;;;;;;;5073374;28;20126;-70
2023/07/13 04:29:37;;;;;;;9.75;2.85;;;;;;;;;;5055563;28;20049;-69
2023/07/13 04:32:04;;;;;;;6.13;2.85;;;;;;;;;;5042060;28;20051;-69
2023/07/13 04:34:30;;;;;;;4.93;2.95;;;;;;;;;;5093314;28;20081;-69
2023/07/13 04:36:56;;;;;;;4.68;2.55;;;;;;;;;;5067772;28;20044;-69
2023/07/13 04:39:22;;;;;;;4.85;2.80;;;;;;;;;;5055225;28;20512;-70
2023/07/13 04:41:51;;;;;;;5.53;2.63;;;;;;;;;;5054327;28;20045;-70
2023/07/13 04:44:17;;;;;;;4.50;2.20;;;;;;;;;;5074249;28;20052;-69
2023/07/13 04:46:43;;;;;;;4.45;2.55;;;;;;;;;;5051818;28;20197;-70
2023/07/13 04:49:09;;;;;;;2.53;2.33;;;;;;;;;;5063765;28;20044;-71
2023/07/13 04:51:35;;;;;;;2.70;2.17;;;;;;;;;;5055741;28;20071;-72
2023/07/13 04:54:01;;;;;;;6.07;2.10;;;;;;;;;;5053943;28;20052;-69
2023/07/13 04:56:28;;;;;;;4.30;2.35;;;;;;;;;;5072927;28;20185;-69
2023/07/13 04:58:54;;;;;;;5.43;2.70;;;;;;;;;;5052861;28;20067;-69
2023/07/13 05:01:20;;;;;;;3.72;2.30;;;;;;;;;;5070277;28;20076;-69
2023/07/13 05:03:46;;;;;;;7.93;2.33;;;;;;;;;;5052988;28;20059;-69
2023/07/13 05:06:13;;;;;;;6.93;2.60;;;;;;;;;;5071524;28;20044;-69
2023/07/13 05:08:39;;;;;;;6.43;2.58;;;;;;;;;;5075585;28;20049;-69
2023/07/13 05:11:07;;;;;;;4.05;2.33;;;;;;;;;;5067401;28;20119;-70
2023/07/13 05:13:33;;;;;;;4.60;2.50;;;;;;;;;;5055353;28;20052;-70
2023/07/13 05:16:00;;;;;;;8.15;2.55;;;;;;;;;;5069772;28;20123;-70
2023/07/13 05:18:26;;;;;;;6.10;2.60;;;;;;;;;;5052633;28;20044;-71
2023/07/13 05:21:00;;;;;;;5.68;2.70;;;;;;;;;;5071216;28;20068;-71
2023/07/13 05:23:26;;;;;;;4.43;2.42;;;;;;;;;;5038034;28;20131;-70
2023/07/13 05:25:52;;;;;;;5.35;2.97;;;;;;;;;;5067621;28;20401;-70
2023/07/13 05:28:18;;;;;;;9.20;3.10;;;;;;;;;;5070068;28;20042;-70
2023/07/13 05:30:48;;;;;;;5.72;2.50;;;;;;;;;;5063943;28;20092;-69
2023/07/13 05:33:14;;;;;;;6.43;2.70;;;;;;;;;;5070081;28;20044;-69
2023/07/13 05:35:40;;;;;;;7.70;2.97;;;;;;;;;;5071785;28;20452;-70
2023/07/13 05:38:06;;;;;;;5.70;2.40;;;;;;;;;;5053150;28;20401;-69
2023/07/13 05:40:32;;;;;;;5.47;2.47;;;;;;;;;;5051937;28;20048;-70
2023/07/13 05:42:58;;;;;;;6.07;2.22;;;;;;;;;;5049759;28;20079;-69
2023/07/13 05:45:25;;;;;;;3.42;2.10;;;;;;;;;;5068799;28;20419;-70
2023/07/13 05:47:52;;;;;;;5.72;2.25;;;;;;;;;;5068602;28;20476;-70
2023/07/13 05:50:18;;;;;;;2.83;2.10;;;;;;;;;;5057570;28;20079;-69
2023/07/13 05:52:50;;;;;;;4.85;2.50;;;;;;;;;;5067699;28;20132;-69
2023/07/13 05:55:16;;;;;;;3.40;2.15;;;;;;;;;;5049175;28;20053;-69
2023/07/13 05:57:42;;;;;;;4.03;2.42;;;;;;;;;;5050636;28;20064;-70
2023/07/13 06:00:09;;;;;;;5.88;2.40;;;;;;;;;;5050896;28;20078;-70
2023/07/13 06:02:35;;;;;;;3.83;2.10;;;;;;;;;;5079613;28;20049;-69
2023/07/13 06:05:02;;;;;;;3.67;2.50;;;;;;;;;;5051040;28;20060;-70
2023/07/13 06:07:28;;;;;;;2.47;2.17;;;;;;;;;;5052013;28;20119;-69
2023/07/13 06:09:54;;;;;;;4.13;2.20;;;;;;;;;;5070503;28;20072;-69
2023/07/13 06:12:20;;;;;;;5.70;2.40;;;;;;;;;;5068611;28;20070;-69
2023/07/13 06:14:46;;;;;;;5.28;2.50;;;;;;;;;;5068870;28;20083;-69
2023/07/13 06:17:12;;;;;;;5.28;2.70;;;;;;;;;;5068823;28;20048;-69
2023/07/13 06:19:38;;;;;;;7.88;3.00;;;;;;;;;;5068580;28;20040;-69
2023/07/13 06:22:04;;;;;;;6.20;2.90;;;;;;;;;;5051207;28;20131;-69
2023/07/13 06:24:30;;;;;;;6.60;2.78;;;;;;;;;;5071114;28;20068;-70
2023/07/13 06:26:57;;;;;;;6.25;2.75;;;;;;;;;;5052164;28;20127;-70
2023/07/13 06:29:23;;;;;;;2.67;2.20;;;;;;;;;;5071311;28;20054;-69
2023/07/13 06:31:49;;;;;;;6.55;2.65;;;;;;;;;;5069538;28;20488;-69
2023/07/13 06:34:15;;;;;;;8.07;2.70;;;;;;;;;;5052784;28;20124;-69
2023/07/13 06:36:41;;;;;;;8.20;3.22;;;;;;;;;;5082806;28;20043;-70
2023/07/13 06:39:07;;;;;;;7.05;2.40;;;;;;;;;;5060929;28;20101;-69
2023/07/13 06:41:34;;;;;;;5.43;2.45;;;;;;;;;;5071950;28;20051;-69
2023/07/13 06:44:00;;;;;;;5.85;2.47;;;;;;;;;;5049953;28;20063;-71
2023/07/13 06:46:27;;;;;;;7.30;2.85;;;;;;;;;;5076321;28;20047;-71
2023/07/13 06:48:53;;;;;;;4.78;2.30;;;;;;;;;;5091206;28;20052;-70
2023/07/13 06:51:19;;;;;;;5.30;2.50;;;;;;;;;;5056630;28;20037;-70
2023/07/13 06:53:45;;;;;;;5.30;2.20;;;;;;;;;;5071073;28;20131;-71
2023/07/13 06:56:17;;;;;;;3.03;2.28;;;;;;;;;;5052450;28;20170;-71
2023/07/13 06:58:43;;;;;;;7.05;2.60;;;;;;;;;;5052648;28;20059;-70
2023/07/13 07:01:09;;;;;;;4.30;2.20;;;;;;;;;;5050234;28;20124;-70
2023/07/13 07:03:35;;;;;;;5.10;2.60;;;;;;;;;;5046747;28;20137;-71
2023/07/13 07:06:18;;;;;;;5.60;2.58;;;;;;;;;;5067184;28;20041;-71
2023/07/13 07:08:45;;;;;;;7.80;2.40;;;;;;;;;;5054936;28;20056;-70
2023/07/13 07:11:15;;;;;;;4.90;2.65;;;;;;;;;;5047881;28;20051;-71
2023/07/13 07:13:41;;;;;;;6.20;2.53;;;;;;;;;;5067946;28;20387;-71
2023/07/13 07:16:10;;;;;;;2.92;2.38;;;;;;;;;;5069676;28;20074;-70
2023/07/13 07:18:36;;;;;;;4.13;2.25;;;;;;;;;;5068964;28;20045;-71
2023/07/13 07:21:03;;;;;;;4.03;2.40;;;;;;;;;;5049138;28;20131;-71
2023/07/13 07:23:29;;;;;;;5.00;2.60;;;;;;;;;;5070221;28;20177;-71
2023/07/13 07:25:55;;;;;;;6.30;3.15;;;;;;;;;;5049990;28;20043;-71
2023/07/13 07:28:21;;;;;;;8.90;3.00;;;;;;;;;;5046442;28;20503;-70
2023/07/13 07:30:48;;;;;;;6.78;2.80;;;;;;;;;;5052359;28;20037;-70
2023/07/13 07:33:14;;;;;;;5.88;2.70;;;;;;;;;;5038413;28;20084;-71
2023/07/13 07:35:40;;;;;;;4.18;2.55;;;;;;;;;;5067202;28;20048;-71
2023/07/13 07:38:09;;;;;;;5.32;2.60;;;;;;;;;;5062465;28;20051;-71
2023/07/13 07:40:37;;;;;;;6.97;2.75;;;;;;;;;;5052092;28;20137;-70
2023/07/13 07:43:03;;;;;;;10.10;3.20;;;;;;;;;;5069055;28;20392;-70
2023/07/13 07:45:29;;;;;;;6.20;2.90;;;;;;;;;;5068091;28;20101;-70
2023/07/13 07:47:58;;;;;;;7.70;3.30;;;;;;;;;;5062541;28;20408;-70
2023/07/13 07:50:25;;;;;;;5.75;3.05;;;;;;;;;;5068049;28;20120;-70
2023/07/13 07:52:51;;;;;;;3.53;2.30;;;;;;;;;;5050526;28;20135;-70
2023/07/13 07:55:17;;;;;;;8.25;2.97;;;;;;;;;;5050727;28;20045;-70
2023/07/13 07:57:44;;;;;;;5.88;2.78;;;;;;;;;;5069021;28;20068;-70
2023/07/13 08:00:10;;;;;;;6.60;3.20;;;;;;;;;;5068740;28;20052;-70
2023/07/13 08:02:36;;;;;;;4.05;2.53;;;;;;;;;;5065515;28;20080;-70
2023/07/13 08:05:02;;;;;;;7.72;2.65;;;;;;;;;;5068879;28;20036;-70
2023/07/13 08:07:31;;;;;;;4.03;2.88;;;;;;;;;;5068958;28;20053;-70
2023/07/13 08:09:57;;;;;;;6.18;2.50;;;;;;;;;;5068995;28;20369;-70
2023/07/13 08:12:23;;;;;;;5.57;2.63;;;;;;;;;;5063404;28;20032;-70
2023/07/13 08:14:58;;;;;;;3.40;2.38;;;;;;;;;;5069618;28;20053;-70
2023/07/13 08:17:24;;;;;;;2.17;1.98;;;;;;;;;;5072388;28;20040;-70
2023/07/13 08:19:51;;;;;;;4.30;2.25;;;;;;;;;;5069747;28;20127;-70
2023/07/13 08:22:17;;;;;;;5.18;2.42;;;;;;;;;;5067359;28;20149;-70
2023/07/13 08:24:43;;;;;;;4.88;2.38;;;;;;;;;;5053904;28;20044;-70
2023/07/13 08:27:10;;;;;;;7.40;2.83;;;;;;;;;;5056346;28;20041;-70
2023/07/13 08:29:36;;;;;;;4.20;1.92;;;;;;;;;;5073587;28;20056;-70
2023/07/13 08:32:02;;;;;;;4.10;2.53;;;;;;;;;;5072990;28;20045;-70
2023/07/13 08:34:28;;;;;;;5.68;2.60;;;;;;;;;;5071205;28;20044;-70
2023/07/13 08:36:54;;;;;;;3.85;2.00;;;;;;;;;;5040179;28;20044;-70
2023/07/13 08:39:20;;;;;;;6.80;2.30;;;;;;;;;;5054558;28;20087;-70
2023/07/13 08:41:53;;;;;;;4.30;1.90;;;;;;;;;;5054124;28;20040;-70
2023/07/13 08:44:19;;;;;;;;;;;;;;;;;;5068472;28;20041;-70
2023/07/13 08:46:46;;;;;;;5.63;2.17;;;;;;;;;;5070555;28;20245;-70
2023/07/13 08:49:14;;;;;;;3.08;1.73;;;;;;;;;;5072458;28;20044;-70
2023/07/13 08:51:51;;;;;;;4.70;2.03;;;;;;;;;;5071831;28;20491;-70
2023/07/13 08:54:20;;;;;;;1.73;1.60;;;;;;;;;;5051215;28;20063;-70
2023/07/13 08:56:47;;;;;;;3.30;2.00;;;;;;;;;;5055324;28;20040;-70
2023/07/13 08:59:18;;;;;;;4.43;2.35;;;;;;;;;;5071814;28;20503;-70
2023/07/13 09:02:01;;;;;;;3.03;1.90;;;;;;;;;;5068071;28;20110;-71
2023/07/13 09:04:36;;;;;;;3.22;1.80;;;;;;;;;;5073725;28;20086;-70
2023/07/13 09:07:07;;;;;;;2.22;1.70;;;;;;;;;;5070143;28;20460;-70
2023/07/13 09:09:39;;;;;;;3.65;2.08;;;;;;;;;;5071826;28;20044;-70
2023/07/13 09:12:38;;;;;;;3.50;2.07;;;;;;;;;;5066038;28;20049;-70
2023/07/13 09:15:04;;;;;;;2.47;1.83;;;;;;;;;;5002931;28;20056;-70
2023/07/13 09:17:36;;;;;;;4.68;2.20;;;;;;;;;;5038155;28;20044;-70
2023/07/13 09:20:11;;;;;;;3.15;2.22;;;;;;;;;;5073095;28;20475;-70
2023/07/13 09:22:38;;;;;;;4.60;2.42;;;;;;;;;;5051971;28;20452;-70
2023/07/13 09:25:07;;;;;;;4.43;2.33;;;;;;;;;;5072434;28;20052;-70
2023/07/13 09:27:39;;;;;;;4.32;2.30;;;;;;;;;;5052373;28;20480;-70
2023/07/13 09:30:27;;;;;;;3.47;2.20;;;;;;;;;;5035286;28;20036;-70
2023/07/13 09:32:53;;;;;;;5.55;2.67;;;;;;;;;;5072757;28;20079;-70
2023/07/13 09:35:22;;;;;;;3.40;2.30;;;;;;;;;;5053885;28;20055;-70
2023/07/13 09:37:48;;;;;;;6.38;2.70;;;;;;;;;;5038153;28;20391;-70
2023/07/13 09:40:22;;;;;;;6.55;2.40;;;;;;;;;;5053260;28;20090;-70
2023/07/13 09:42:49;;;;;;;9.18;3.08;;;;;;;;;;5069852;28;20037;-70
2023/07/13 09:45:28;;;;;;;6.03;2.72;;;;;;;;;;5067988;28;20049;-69
2023/07/13 09:48:00;;;;;;;7.93;3.30;;;;;;;;;;5067391;28;20045;-69
2023/07/13 09:50:29;;;;;;;5.90;2.90;;;;;;;;;;5059315;28;20131;-69
2023/07/13 09:52:58;;;;;;;6.32;2.63;;;;;;;;;;5069118;28;22601;-69
2023/07/13 09:55:38;;;;;;;6.60;3.67;;;;;;;;;;5070040;28;20049;-69
2023/07/13 09:58:13;;;;;;;7.22;3.17;;;;;;;;;;5069079;28;20102;-70
2023/07/13 10:00:43;;;;;;;6.47;3.13;;;;;;;;;;5055342;28;20085;-69
2023/07/13 10:03:20;;;;;;;8.65;3.15;;;;;;;;;;5067569;28;20056;-69
2023/07/13 10:05:47;;;;;;;7.38;2.88;;;;;;;;;;5052444;28;20495;-69
2023/07/13 10:08:19;;;;;;;7.15;3.30;;;;;;;;;;5071505;28;20062;-68
2023/07/13 10:10:45;;;;;;;7.82;3.30;;;;;;;;;;5068179;28;20041;-70
2023/07/13 10:13:25;;;;;;;8.48;3.13;;;;;;;;;;5067799;28;20404;-69
2023/07/13 10:15:51;;;;;;;7.22;3.78;;;;;;;;;;5071386;28;20115;-69
2023/07/13 10:18:18;;;;;;;5.32;3.00;;;;;;;;;;5052094;28;20048;-69
2023/07/13 10:20:44;;;;;;;7.88;3.67;;;;;;;;;;5070380;28;20496;-70
2023/07/13 10:23:18;;;;;;;5.88;3.10;;;;;;;;;;5052772;28;20133;-69
2023/07/13 10:25:46;;;;;;;8.73;3.63;;;;;;;;;;5065168;28;20067;-69
2023/07/13 10:28:33;;;;;;;6.30;3.10;;;;;;;;;;5066966;28;20084;-69
2023/07/13 10:31:01;;;;;;;6.90;3.05;;;;;;;;;;5066360;28;20393;-69
2023/07/13 10:33:27;;;;;;;9.05;3.78;;;;;;;;;;5067043;28;20044;-69
2023/07/13 10:35:56;;;;;;;9.65;3.10;;;;;;;;;;5069132;28;20043;-70
2023/07/13 10:38:23;;;;;;;8.02;3.10;;;;;;;;;;5070036;28;20054;-69
2023/07/13 10:41:06;;;;;;;9.50;3.70;;;;;;;;;;5071202;28;20048;-69
2023/07/13 10:43:36;;;;;;;6.72;3.08;;;;;;;;;;5055762;28;20556;-69
2023/07/13 10:46:04;;;;;;;7.20;3.10;;;;;;;;;;5067454;28;20050;-69
2023/07/13 10:48:34;;;;;;;6.93;3.70;;;;;;;;;;5068871;28;20044;-69
2023/07/13 10:51:01;;;;;;;9.82;3.30;;;;;;;;;;5068656;28;20484;-70
2023/07/13 10:53:35;;;;;;;9.65;3.70;;;;;;;;;;5055229;28;20503;-69
2023/07/13 10:56:02;;;;;;;8.05;3.83;;;;;;;;;;5052336;28;20400;-69
2023/07/13 10:58:34;;;;;;;9.32;3.22;;;;;;;;;;5070360;28;20142;-69
2023/07/13 11:01:06;;;;;;;7.80;3.35;;;;;;;;;;5068575;28;20222;-69
2023/07/13 11:03:34;;;;;;;8.25;3.20;;;;;;;;;;5069215;28;20044;-69
2023/07/13 11:06:08;;;;;;;9.82;3.70;;;;;;;;;;5071470;28;20126;-69
2023/07/13 11:08:38;;;;;;;11.18;3.50;;;;;;;;;;5068520;28;20114;-69
2023/07/13 11:11:24;;;;;;;9.05;3.45;;;;;;;;;;5069428;28;20056;-69
2023/07/13 11:13:50;;;;;;;9.57;3.95;;;;;;;;;;5065795;28;20488;-69
2023/07/13 11:16:23;;;;;;;8.20;3.28;;;;;;;;;;5067738;28;20040;-69
2023/07/13 11:18:50;;;;;;;10.07;3.57;;;;;;;;;;5068559;28;20040;-69
2023/07/13 11:21:36;;;;;;;8.95;3.35;;;;;;;;;;5051235;28;20327;-69
2023/07/13 11:24:02;;;;;;;12.73;3.42;;;;;;;;;;5044559;28;20151;-69
2023/07/13 11:26:42;;;;;;;7.57;3.08;;;;;;;;;;5060449;28;20063;-70
2023/07/13 11:29:10;;;;;;;5.93;3.20;;;;;;;;;;5052332;28;20048;-70
2023/07/13 11:31:36;;;;;;;6.68;3.10;;;;;;;;;;5068776;28;20565;-69
2023/07/13 11:34:02;;;;;;;8.45;3.08;;;;;;;;;;5070370;28;20044;-69
2023/07/13 11:36:32;;;;;;;7.93;3.15;;;;;;;;;;5065108;28;20074;-69
2023/07/13 11:39:01;;;;;;;7.38;3.15;;;;;;;;;;5073987;28;20037;-68
2023/07/13 11:41:31;;;;;;;8.20;3.13;;;;;;;;;;5049276;28;20036;-69
2023/07/13 11:44:08;;;;;;;8.57;3.50;;;;;;;;;;5064164;28;20037;-69
2023/07/13 11:46:34;;;;;;;7.68;3.38;;;;;;;;;;5046847;28;20091;-69
2023/07/13 11:49:00;;;;;;;9.10;3.47;;;;;;;;;;5066508;28;20511;-69
2023/07/13 11:51:33;;;;;;;8.75;3.20;;;;;;;;;;5069872;28;21279;-69
2023/07/13 11:54:20;;;;;;;15.93;4.70;;;;;;;;;;5055405;28;20052;-69
2023/07/13 11:56:46;;;;;;;5.70;3.00;;;;;;;;;;5064166;28;20087;-69
2023/07/13 11:59:13;;;;;;;6.63;2.92;;;;;;;;;;5048514;28;20545;-69
2023/07/13 12:01:44;;;;;;;6.38;3.20;;;;;;;;;;5072179;28;20040;-69
2023/07/13 12:04:21;;;;;;;6.93;3.10;;;;;;;;;;5063961;28;20519;-69
2023/07/13 12:06:47;;;;;;;10.27;3.15;;;;;;;;;;5073846;28;20065;-69
2023/07/13 12:09:17;;;;;;;12.52;3.22;;;;;;;;;;5071094;28;20117;-69
2023/07/13 12:11:44;;;;;;;9.57;3.58;;;;;;;;;;5047490;28;20073;-69
2023/07/13 12:14:15;;;;;;;6.22;2.80;;;;;;;;;;5057048;28;20074;-69
2023/07/13 12:16:41;;;;;;;7.35;3.40;;;;;;;;;;5074730;28;20549;-69
2023/07/13 12:19:27;;;;;;;7.47;3.38;;;;;;;;;;5067675;28;20572;-69
2023/07/13 12:21:58;;;;;;;8.07;3.58;;;;;;;;;;5048018;28;20105;-69
2023/07/13 12:24:24;;;;;;;8.38;3.38;;;;;;;;;;5055414;28;20464;-69
2023/07/13 12:27:01;;;;;;;3.78;3.05;;;;;;;;;;5051957;28;20131;-69
2023/07/13 12:29:27;;;;;;;7.68;3.88;;;;;;;;;;5050163;28;20051;-69
2023/07/13 12:31:54;;;;;;;7.43;3.30;;;;;;;;;;5062260;28;20456;-69
2023/07/13 12:34:24;;;;;;;11.63;3.95;;;;;;;;;;5069737;28;20053;-68
2023/07/13 12:36:54;;;;;;;6.60;3.08;;;;;;;;;;5056395;28;20068;-69
2023/07/13 12:39:25;;;;;;;7.00;3.47;;;;;;;;;;5064440;28;20404;-69
2023/07/13 12:41:53;;;;;;;6.57;3.05;;;;;;;;;;5066700;28;20041;-70
2023/07/13 12:44:26;;;;;;;12.35;3.63;;;;;;;;;;5070033;28;20040;-69
2023/07/13 12:47:04;;;;;;;7.88;3.42;;;;;;;;;;5066571;28;20048;-69
2023/07/13 12:49:34;;;;;;;8.88;3.50;;;;;;;;;;5072920;28;20166;-70
2023/07/13 12:52:01;;;;;;;8.55;3.20;;;;;;;;;;5044469;28;20376;-70
2023/07/13 12:54:28;;;;;;;7.03;3.40;;;;;;;;;;5051590;28;20376;-70
2023/07/13 12:56:56;;;;;;;10.30;3.50;;;;;;;;;;5067858;28;20067;-70
2023/07/13 12:59:23;;;;;;;8.73;3.40;;;;;;;;;;5070609;28;20053;-70
2023/07/13 13:01:50;;;;;;;11.73;3.38;;;;;;;;;;5050042;28;20054;-69
2023/07/13 13:04:21;;;;;;;6.45;3.20;;;;;;;;;;5067571;28;20033;-70
2023/07/13 13:06:47;;;;;;;5.32;2.83;;;;;;;;;;5036011;28;20056;-70
2023/07/13 13:09:14;;;;;;;6.15;2.92;;;;;;;;;;5080062;28;20054;-70
2023/07/13 13:11:41;;;;;;;9.63;3.20;;;;;;;;;;5074279;28;20538;-69
2023/07/13 13:14:07;;;;;;;9.93;3.60;;;;;;;;;;5063719;28;20043;-69
2023/07/13 13:16:35;;;;;;;5.82;3.20;;;;;;;;;;5069272;28;20040;-69
2023/07/13 13:19:10;;;;;;;8.73;3.45;;;;;;;;;;5070267;28;20499;-69
2023/07/13 13:21:36;;;;;;;9.13;3.25;;;;;;;;;;5050615;28;20052;-69
2023/07/13 13:24:02;;;;;;;7.00;3.15;;;;;;;;;;5070594;28;20056;-69
2023/07/13 13:26:49;;;;;;;5.70;3.10;;;;;;;;;;5071238;28;20399;-70
2023/07/13 13:29:19;;;;;;;7.70;3.45;;;;;;;;;;5051623;28;20143;-70
2023/07/13 13:31:46;;;;;;;9.25;3.63;;;;;;;;;;5067735;28;20041;-70
2023/07/13 13:34:14;;;;;;;6.18;3.13;;;;;;;;;;5052870;28;20083;-69
2023/07/13 13:36:40;;;;;;;8.45;3.55;;;;;;;;;;5071954;28;20036;-70
2023/07/13 13:39:28;;;;;;;9.30;3.58;;;;;;;;;;5054631;28;20510;-69
2023/07/13 13:41:54;;;;;;;5.95;2.90;;;;;;;;;;5067460;28;20052;-70
2023/07/13 13:44:21;;;;;;;6.43;3.25;;;;;;;;;;5069131;28;20060;-70
2023/07/13 13:46:49;;;;;;;8.82;3.75;;;;;;;;;;5069790;28;20036;-70
2023/07/13 13:49:17;;;;;;;9.27;3.50;;;;;;;;;;5049861;28;20048;-70
2023/07/13 13:51:43;;;;;;;5.85;3.33;;;;;;;;;;5072452;28;20041;-69
2023/07/13 13:54:13;;;;;;;7.15;3.42;;;;;;;;;;5052790;28;20048;-69
2023/07/13 13:56:39;;;;;;;7.43;3.72;;;;;;;;;;5068636;28;20052;-69
2023/07/13 13:59:06;;;;;;;8.82;3.70;;;;;;;;;;5071847;28;20555;-69
2023/07/13 14:01:32;;;;;;;9.65;3.60;;;;;;;;;;5070596;28;20062;-69
2023/07/13 14:03:59;;;;;;;6.25;3.17;;;;;;;;;;5068478;28;20434;-69
2023/07/13 14:06:25;;;;;;;4.57;2.78;;;;;;;;;;5071259;28;20119;-70
2023/07/13 14:08:51;;;;;;;6.13;2.95;;;;;;;;;;5067750;28;20127;-69
2023/07/13 14:11:20;;;;;;;8.25;3.40;;;;;;;;;;5052926;28;20492;-70
2023/07/13 14:13:51;;;;;;;7.47;3.40;;;;;;;;;;5069689;28;20040;-69
2023/07/13 14:16:18;;;;;;;11.77;3.70;;;;;;;;;;5035466;28;20120;-70
2023/07/13 14:18:48;;;;;;;8.18;3.75;;;;;;;;;;5068918;28;20072;-70
2023/07/13 14:21:15;;;;;;;8.63;3.70;;;;;;;;;;5068395;28;20485;-70
2023/07/13 14:23:41;;;;;;;6.22;3.78;;;;;;;;;;5051474;28;20048;-71
2023/07/13 14:26:18;;;;;;;10.70;3.92;;;;;;;;;;5072379;28;20097;-71
2023/07/13 14:28:48;;;;;;;7.57;3.72;;;;;;;;;;5067115;28;20069;-69
2023/07/13 14:31:16;;;;;;;6.07;3.60;;;;;;;;;;5048176;28;20044;-69
2023/07/13 14:33:42;;;;;;;6.85;3.85;;;;;;;;;;5053604;28;20083;-70
2023/07/13 14:36:27;;;;;;;10.13;3.92;;;;;;;;;;5069960;28;20063;-69
2023/07/13 14:38:53;;;;;;;7.13;3.50;;;;;;;;;;5071182;28;20058;-70
2023/07/13 14:41:20;;;;;;;8.55;3.83;;;;;;;;;;5053935;28;20453;-69
2023/07/13 14:43:48;;;;;;;7.40;3.35;;;;;;;;;;5071671;28;20059;-70
2023/07/13 14:46:40;;;;;;;8.75;3.40;;;;;;;;;;5071144;28;20048;-70
2023/07/13 14:49:11;;;;;;;6.97;3.38;;;;;;;;;;5065397;28;20048;-69